NCAR-RAP Real-Time Weather Data

Output produced by METARs form (14 October 2019  22:38 UTC)
found at http://weather.rap.ucar.edu/surface/
 
KDSM 142154Z 13011KT 10SM FEW250 17/02 A2992 RMK AO2 SLP133 T01670022
KDSM 142054Z 15010KT 10SM FEW250 17/03 A2994 RMK AO2 SLP140 T01670028 58031
KDSM 141954Z 15009KT 10SM FEW250 SCT300 16/03 A2997 RMK AO2 SLP151 T01560028
KDSM 141854Z 15011KT 10SM FEW250 SCT300 14/03 A3001 RMK AO2 SLP165 T01440028
KDSM 141754Z 15007KT 10SM FEW250 13/03 A3003 RMK AO2 SLP173 T01280028 10128 21006 58018
KDSM 141654Z 17008KT 10SM FEW000 FEW250 11/02 A3006 RMK AO2 SLP184 FU FEW000 T01110022
KDSM 141554Z 17005KT 10SM FEW250 08/02 A3008 RMK AO2 SLP190 T00830022
KDSM 141454Z 14004KT 10SM FEW250 SCT300 06/01 A3009 RMK AO2 SLP193 T00610011 53007
KDSM 141354Z 00000KT 10SM FEW001 FEW250 03/01 A3008 RMK AO2 SLP192 T00280011
KDSM 141254Z 16003KT 10SM VCFG FEW250 01/M01 A3007 RMK AO2 SLP187 FG VC SW-NW T00061011
KDSM 141154Z 00000KT 10SM FEW250 02/M01 A3006 RMK AO2 SLP186 T00171006 10039 20006 51007
KDSM 141054Z 00000KT 10SM CLR 01/M01 A3006 RMK AO2 SLP183 T00111006
KDSM 140954Z 00000KT 10SM CLR 02/00 A3006 RMK AO2 SLP182 T00220000
KDSM 140854Z 00000KT 10SM CLR 02/M01 A3004 RMK AO2 SLP178 T00171006 53005
KDSM 140754Z 00000KT 10SM CLR 03/M01 A3003 RMK AO2 SLP175 T00281006
KDSM 140654Z 00000KT 10SM CLR 03/00 A3003 RMK AO2 SLP174 T00330000
KDSM 140554Z 00000KT 10SM CLR 04/00 A3003 RMK AO2 SLP172 T00390000 10100 20028 401330000 51008
KDSM 140454Z 00000KT 10SM CLR 03/00 A3002 RMK AO2 SLP172 T00280000
KDSM 140354Z 33003KT 10SM CLR 06/00 A3001 RMK AO2 SLP167 T00560000
KDSM 140254Z 34003KT 10SM CLR 06/00 A3000 RMK AO2 SLP165 T00560000 51022
KDSM 140154Z 35006KT 10SM CLR 07/00 A2998 RMK AO2 SLP158 T00670000
KDSM 140054Z 36006KT 10SM CLR 08/01 A2997 RMK AO2 SLP154 T00830006
KDSM 132354Z 34010KT 10SM FEW060 10/00 A2993 RMK AO2 SLP143 T01000000 10133 20100 53016
KDSM 132254Z 28010KT 10SM FEW060 12/01 A2991 RMK AO2 SLP131 T01220006
KDSM 132154Z 28013KT 10SM FEW055 13/01 A2989 RMK AO2 SLP125 T01280006
KDSM 132054Z 28014G21KT 10SM SCT055 SCT250 13/00 A2989 RMK AO2 SLP124 T01280000 56007
KDSM 131954Z 32012G20KT 10SM SCT050 SCT250 12/00 A2989 RMK AO2 SLP127 T01170000
KDSM 131854Z 29011KT 10SM FEW120 FEW250 11/00 A2990 RMK AO2 SLP130 T01110000
KDSM 131754Z 31012G23KT 10SM FEW100 SCT250 10/M01 A2991 RMK AO2 PK WND 30026/1726 SLP133 T01001006 10100 20000 50002
KDSM 131654Z 31017G25KT 10SM BKN110 09/00 A2991 RMK AO2 SLP133 T00940000
KDSM 131554Z 29012KT 10SM BKN110 07/M01 A2991 RMK AO2 SLP133 T00721006
KDSM 131454Z 27013KT 10SM SCT100 SCT250 06/M01 A2990 RMK AO2 SLP132 T00561011 51014
KDSM 131354Z 27008KT 10SM FEW095 SCT250 03/M01 A2990 RMK AO2 SLP130 T00281011
KDSM 131254Z 24009KT 10SM FEW095 SCT250 01/M02 A2988 RMK AO2 SLP125 T00061022
KDSM 131154Z 25006KT 10SM FEW095 00/M02 A2986 RMK AO2 SLP117 T00001022 10022 20000 52001
KDSM 131054Z 22009KT 10SM FEW095 01/M02 A2986 RMK AO2 SLP115 T00061022
KDSM 130954Z 22009KT 10SM FEW100 01/M02 A2986 RMK AO2 SLP115 T00061017
KDSM 130854Z 21004KT 10SM FEW100 01/M02 A2986 RMK AO2 SLP115 T00061017 56003
KDSM 130754Z 22006KT 10SM FEW100 01/M02 A2986 RMK AO2 SLP116 T00061017
KDSM 130654Z 22005KT 10SM FEW090 SCT120 01/M01 A2985 RMK AO2 SLP113 T00111011
KDSM 130554Z 23007KT 10SM FEW090 SCT120 01/M01 A2987 RMK AO2 SLP119 T00111011 10106 20011 401391017 50001
KDSM 130454Z 30005KT 10SM FEW120 02/M01 A2987 RMK AO2 SLP119 T00221011
KDSM 130354Z 32007KT 10SM FEW120 SCT250 03/M01 A2987 RMK AO2 SLP119 T00331006
KDSM 130254Z 35006KT 10SM FEW250 03/M01 A2986 RMK AO2 SLP118 T00331006 51019
KDSM 130154Z 01008KT 10SM SCT250 04/M01 A2986 RMK AO2 SLP117 T00441006
KDSM 130054Z 31013G18KT 10SM FEW180 SCT250 08/M02 A2982 RMK AO2 SLP105 T00781022
KDSM 122354Z 25011KT 10SM FEW070 FEW180 SCT250 11/M03 A2981 RMK AO2 SLP099 T01061028 10139 20106 53005
KDSM 122254Z 25016G26KT 10SM FEW035 FEW065 FEW200 SCT250 13/M03 A2979 RMK AO2 PK WND 26031/2208 SLP094 T01281033